sensor_id;sensor_type;location;lat;lon;timestamp;P1;durP1;ratioP1;P2;durP2;ratioP2
30133;SDS011;16946;49.984;10.672;2023-04-15T00:00:05;4.72;;;4.28;;
30133;SDS011;16946;49.984;10.672;2023-04-15T00:00:36;5.07;;;4.53;;
30133;SDS011;16946;49.984;10.672;2023-04-15T00:01:07;5.27;;;4.70;;
30133;SDS011;16946;49.984;10.672;2023-04-15T00:01:38;5.25;;;4.85;;
30133;SDS011;16946;49.984;10.672;2023-04-15T00:02:13;4.60;;;4.20;;
30133;SDS011;16946;49.984;10.672;2023-04-15T00:02:44;4.35;;;3.95;;
30133;SDS011;16946;49.984;10.672;2023-04-15T00:03:15;4.50;;;4.10;;
30133;SDS011;16946;49.984;10.672;2023-04-15T00:03:46;5.25;;;4.03;;
30133;SDS011;16946;49.984;10.672;2023-04-15T00:04:17;5.43;;;4.63;;
30133;SDS011;16946;49.984;10.672;2023-04-15T00:04:47;5.03;;;4.47;;
30133;SDS011;16946;49.984;10.672;2023-04-15T00:05:18;5.60;;;4.80;;
30133;SDS011;16946;49.984;10.672;2023-04-15T00:05:49;7.63;;;5.33;;
30133;SDS011;16946;49.984;10.672;2023-04-15T00:06:20;5.30;;;4.40;;
30133;SDS011;16946;49.984;10.672;2023-04-15T00:06:51;5.22;;;4.22;;
30133;SDS011;16946;49.984;10.672;2023-04-15T00:07:22;5.13;;;4.63;;
30133;SDS011;16946;49.984;10.672;2023-04-15T00:07:53;5.40;;;4.87;;
30133;SDS011;16946;49.984;10.672;2023-04-15T00:08:23;5.67;;;4.97;;
30133;SDS011;16946;49.984;10.672;2023-04-15T00:08:54;6.87;;;5.07;;
30133;SDS011;16946;49.984;10.672;2023-04-15T00:09:24;5.27;;;4.57;;
30133;SDS011;16946;49.984;10.672;2023-04-15T00:09:55;5.00;;;4.50;;
30133;SDS011;16946;49.984;10.672;2023-04-15T00:10:26;5.55;;;4.35;;
30133;SDS011;16946;49.984;10.672;2023-04-15T00:10:57;5.07;;;4.33;;
30133;SDS011;16946;49.984;10.672;2023-04-15T00:11:31;4.60;;;4.20;;
30133;SDS011;16946;49.984;10.672;2023-04-15T00:12:02;5.17;;;4.70;;
30133;SDS011;16946;49.984;10.672;2023-04-15T00:12:33;4.82;;;4.38;;
30133;SDS011;16946;49.984;10.672;2023-04-15T00:13:04;4.77;;;4.27;;
30133;SDS011;16946;49.984;10.672;2023-04-15T00:13:34;4.90;;;4.50;;
30133;SDS011;16946;49.984;10.672;2023-04-15T00:14:05;5.30;;;4.80;;
30133;SDS011;16946;49.984;10.672;2023-04-15T00:14:36;4.67;;;4.27;;
30133;SDS011;16946;49.984;10.672;2023-04-15T00:15:07;4.53;;;4.13;;
30133;SDS011;16946;49.984;10.672;2023-04-15T00:15:39;4.93;;;4.43;;
30133;SDS011;16946;49.984;10.672;2023-04-15T00:16:09;4.30;;;3.77;;
30133;SDS011;16946;49.984;10.672;2023-04-15T00:16:40;5.40;;;4.90;;
30133;SDS011;16946;49.984;10.672;2023-04-15T00:17:11;4.63;;;4.23;;
30133;SDS011;16946;49.984;10.672;2023-04-15T00:17:42;5.85;;;5.15;;
30133;SDS011;16946;49.984;10.672;2023-04-15T00:18:12;4.77;;;4.33;;
30133;SDS011;16946;49.984;10.672;2023-04-15T00:18:43;7.83;;;4.60;;
30133;SDS011;16946;49.984;10.672;2023-04-15T00:19:13;5.03;;;3.93;;
30133;SDS011;16946;49.984;10.672;2023-04-15T00:19:44;4.60;;;4.07;;
30133;SDS011;16946;49.984;10.672;2023-04-15T00:20:14;4.43;;;4.03;;
30133;SDS011;16946;49.984;10.672;2023-04-15T00:20:45;5.30;;;4.77;;
30133;SDS011;16946;49.984;10.672;2023-04-15T00:21:16;6.33;;;4.70;;
30133;SDS011;16946;49.984;10.672;2023-04-15T00:21:46;4.00;;;3.60;;
30133;SDS011;16946;49.984;10.672;2023-04-15T00:22:17;4.93;;;4.30;;
30133;SDS011;16946;49.984;10.672;2023-04-15T00:22:47;4.57;;;4.10;;
30133;SDS011;16946;49.984;10.672;2023-04-15T00:23:18;5.70;;;4.07;;
30133;SDS011;16946;49.984;10.672;2023-04-15T00:23:48;4.57;;;4.17;;
30133;SDS011;16946;49.984;10.672;2023-04-15T00:24:22;5.25;;;4.40;;
30133;SDS011;16946;49.984;10.672;2023-04-15T00:24:53;5.47;;;4.17;;
30133;SDS011;16946;49.984;10.672;2023-04-15T00:25:23;4.43;;;4.03;;
30133;SDS011;16946;49.984;10.672;2023-04-15T00:25:54;5.47;;;3.97;;
30133;SDS011;16946;49.984;10.672;2023-04-15T00:26:25;4.93;;;4.22;;
30133;SDS011;16946;49.984;10.672;2023-04-15T00:26:56;5.80;;;4.50;;
30133;SDS011;16946;49.984;10.672;2023-04-15T00:27:27;5.40;;;4.40;;
30133;SDS011;16946;49.984;10.672;2023-04-15T00:27:57;4.53;;;4.13;;
30133;SDS011;16946;49.984;10.672;2023-04-15T00:28:28;6.20;;;4.50;;
30133;SDS011;16946;49.984;10.672;2023-04-15T00:28:59;6.45;;;4.50;;
30133;SDS011;16946;49.984;10.672;2023-04-15T00:29:30;5.40;;;4.40;;
30133;SDS011;16946;49.984;10.672;2023-04-15T00:30:01;5.50;;;4.97;;
30133;SDS011;16946;49.984;10.672;2023-04-15T00:30:33;6.30;;;4.93;;
30133;SDS011;16946;49.984;10.672;2023-04-15T00:31:03;5.70;;;5.03;;
30133;SDS011;16946;49.984;10.672;2023-04-15T00:31:34;4.78;;;4.28;;
30133;SDS011;16946;49.984;10.672;2023-04-15T00:32:05;6.07;;;5.23;;
30133;SDS011;16946;49.984;10.672;2023-04-15T00:32:36;7.73;;;5.90;;
30133;SDS011;16946;49.984;10.672;2023-04-15T00:33:06;7.33;;;5.90;;
30133;SDS011;16946;49.984;10.672;2023-04-15T00:33:37;8.17;;;6.50;;
30133;SDS011;16946;49.984;10.672;2023-04-15T00:34:08;7.63;;;6.13;;
30133;SDS011;16946;49.984;10.672;2023-04-15T00:34:38;6.77;;;5.93;;
30133;SDS011;16946;49.984;10.672;2023-04-15T00:35:09;7.80;;;6.17;;
30133;SDS011;16946;49.984;10.672;2023-04-15T00:35:40;8.30;;;6.63;;
30133;SDS011;16946;49.984;10.672;2023-04-15T00:36:11;8.07;;;6.07;;
30133;SDS011;16946;49.984;10.672;2023-04-15T00:36:42;6.67;;;5.90;;
30133;SDS011;16946;49.984;10.672;2023-04-15T00:37:12;5.47;;;4.88;;
30133;SDS011;16946;49.984;10.672;2023-04-15T00:37:43;5.97;;;4.60;;
30133;SDS011;16946;49.984;10.672;2023-04-15T00:38:14;5.67;;;4.83;;
30133;SDS011;16946;49.984;10.672;2023-04-15T00:38:44;7.27;;;4.93;;
30133;SDS011;16946;49.984;10.672;2023-04-15T00:39:15;5.70;;;4.80;;
30133;SDS011;16946;49.984;10.672;2023-04-15T00:39:46;5.97;;;4.70;;
30133;SDS011;16946;49.984;10.672;2023-04-15T00:40:16;5.67;;;4.57;;
30133;SDS011;16946;49.984;10.672;2023-04-15T00:40:49;4.50;;;4.10;;
30133;SDS011;16946;49.984;10.672;2023-04-15T00:41:20;5.07;;;4.63;;
30133;SDS011;16946;49.984;10.672;2023-04-15T00:41:52;8.52;;;4.97;;
30133;SDS011;16946;49.984;10.672;2023-04-15T00:42:23;5.20;;;4.70;;
30133;SDS011;16946;49.984;10.672;2023-04-15T00:42:54;6.15;;;5.47;;
30133;SDS011;16946;49.984;10.672;2023-04-15T00:43:25;7.80;;;5.00;;
30133;SDS011;16946;49.984;10.672;2023-04-15T00:43:55;6.07;;;4.70;;
30133;SDS011;16946;49.984;10.672;2023-04-15T00:44:26;5.17;;;4.10;;
30133;SDS011;16946;49.984;10.672;2023-04-15T00:44:56;4.27;;;3.87;;
30133;SDS011;16946;49.984;10.672;2023-04-15T00:45:27;5.57;;;4.60;;
30133;SDS011;16946;49.984;10.672;2023-04-15T00:45:58;5.20;;;4.70;;
30133;SDS011;16946;49.984;10.672;2023-04-15T00:46:30;5.05;;;4.63;;
30133;SDS011;16946;49.984;10.672;2023-04-15T00:47:02;5.95;;;5.35;;
30133;SDS011;16946;49.984;10.672;2023-04-15T00:47:35;4.60;;;4.20;;
30133;SDS011;16946;49.984;10.672;2023-04-15T00:48:06;5.07;;;4.57;;
30133;SDS011;16946;49.984;10.672;2023-04-15T00:48:38;4.68;;;4.28;;
30133;SDS011;16946;49.984;10.672;2023-04-15T00:49:09;5.05;;;4.15;;
30133;SDS011;16946;49.984;10.672;2023-04-15T00:49:40;4.70;;;4.30;;
30133;SDS011;16946;49.984;10.672;2023-04-15T00:50:11;6.13;;;4.87;;
30133;SDS011;16946;49.984;10.672;2023-04-15T00:50:42;6.15;;;5.07;;
30133;SDS011;16946;49.984;10.672;2023-04-15T00:51:12;5.07;;;4.57;;
30133;SDS011;16946;49.984;10.672;2023-04-15T00:51:43;4.35;;;3.95;;
30133;SDS011;16946;49.984;10.672;2023-04-15T00:52:14;5.37;;;4.87;;
30133;SDS011;16946;49.984;10.672;2023-04-15T00:52:44;4.70;;;4.20;;
30133;SDS011;16946;49.984;10.672;2023-04-15T00:53:15;4.60;;;4.20;;
30133;SDS011;16946;49.984;10.672;2023-04-15T00:53:46;4.80;;;4.30;;
30133;SDS011;16946;49.984;10.672;2023-04-15T00:54:16;5.30;;;4.67;;
30133;SDS011;16946;49.984;10.672;2023-04-15T00:54:47;5.30;;;4.80;;
30133;SDS011;16946;49.984;10.672;2023-04-15T00:55:17;5.17;;;4.67;;
30133;SDS011;16946;49.984;10.672;2023-04-15T00:55:48;5.37;;;4.70;;
30133;SDS011;16946;49.984;10.672;2023-04-15T00:56:20;5.45;;;4.07;;
30133;SDS011;16946;49.984;10.672;2023-04-15T00:56:53;4.82;;;4.32;;
30133;SDS011;16946;49.984;10.672;2023-04-15T00:57:23;5.43;;;4.93;;
30133;SDS011;16946;49.984;10.672;2023-04-15T00:57:56;4.97;;;3.88;;
30133;SDS011;16946;49.984;10.672;2023-04-15T00:58:26;5.03;;;4.53;;
30133;SDS011;16946;49.984;10.672;2023-04-15T00:58:57;5.10;;;4.70;;
30133;SDS011;16946;49.984;10.672;2023-04-15T00:59:29;5.07;;;4.43;;
30133;SDS011;16946;49.984;10.672;2023-04-15T01:00:00;5.13;;;4.43;;
30133;SDS011;16946;49.984;10.672;2023-04-15T01:00:32;4.88;;;4.18;;
30133;SDS011;16946;49.984;10.672;2023-04-15T01:01:03;4.40;;;4.00;;
30133;SDS011;16946;49.984;10.672;2023-04-15T01:01:34;4.97;;;4.37;;
30133;SDS011;16946;49.984;10.672;2023-04-15T01:02:05;4.85;;;4.45;;
30133;SDS011;16946;49.984;10.672;2023-04-15T01:02:37;4.72;;;4.32;;
30133;SDS011;16946;49.984;10.672;2023-04-15T01:03:08;5.38;;;4.15;;
30133;SDS011;16946;49.984;10.672;2023-04-15T01:03:38;5.27;;;4.77;;
30133;SDS011;16946;49.984;10.672;2023-04-15T01:04:09;5.10;;;4.60;;
30133;SDS011;16946;49.984;10.672;2023-04-15T01:04:41;4.65;;;4.25;;
30133;SDS011;16946;49.984;10.672;2023-04-15T01:05:12;5.20;;;4.70;;
30133;SDS011;16946;49.984;10.672;2023-04-15T01:05:42;4.80;;;4.40;;
30133;SDS011;16946;49.984;10.672;2023-04-15T01:06:13;4.70;;;4.20;;
30133;SDS011;16946;49.984;10.672;2023-04-15T01:06:43;4.70;;;3.93;;
30133;SDS011;16946;49.984;10.672;2023-04-15T01:07:14;4.83;;;4.10;;
30133;SDS011;16946;49.984;10.672;2023-04-15T01:07:45;4.70;;;4.30;;
30133;SDS011;16946;49.984;10.672;2023-04-15T01:08:16;5.25;;;4.30;;
30133;SDS011;16946;49.984;10.672;2023-04-15T01:08:47;4.70;;;4.30;;
30133;SDS011;16946;49.984;10.672;2023-04-15T01:09:18;4.33;;;3.70;;
30133;SDS011;16946;49.984;10.672;2023-04-15T01:09:49;4.70;;;4.30;;
30133;SDS011;16946;49.984;10.672;2023-04-15T01:10:19;6.13;;;4.80;;
30133;SDS011;16946;49.984;10.672;2023-04-15T01:10:50;4.33;;;4.03;;
30133;SDS011;16946;49.984;10.672;2023-04-15T01:11:20;5.50;;;4.97;;
30133;SDS011;16946;49.984;10.672;2023-04-15T01:11:53;4.65;;;4.20;;
30133;SDS011;16946;49.984;10.672;2023-04-15T01:12:23;5.27;;;4.77;;
30133;SDS011;16946;49.984;10.672;2023-04-15T01:12:56;5.55;;;4.28;;
30133;SDS011;16946;49.984;10.672;2023-04-15T01:13:26;4.40;;;4.00;;
30133;SDS011;16946;49.984;10.672;2023-04-15T01:13:57;5.82;;;4.47;;
30133;SDS011;16946;49.984;10.672;2023-04-15T01:14:28;5.13;;;4.72;;
30133;SDS011;16946;49.984;10.672;2023-04-15T01:14:59;5.20;;;4.70;;
30133;SDS011;16946;49.984;10.672;2023-04-15T01:15:31;4.85;;;4.45;;
30133;SDS011;16946;49.984;10.672;2023-04-15T01:16:01;4.40;;;3.97;;
30133;SDS011;16946;49.984;10.672;2023-04-15T01:16:32;5.20;;;4.70;;
30133;SDS011;16946;49.984;10.672;2023-04-15T01:17:03;4.47;;;4.07;;
30133;SDS011;16946;49.984;10.672;2023-04-15T01:17:33;6.53;;;5.00;;
30133;SDS011;16946;49.984;10.672;2023-04-15T01:18:04;5.78;;;4.47;;
30133;SDS011;16946;49.984;10.672;2023-04-15T01:18:36;5.15;;;4.60;;
30133;SDS011;16946;49.984;10.672;2023-04-15T01:19:07;5.00;;;4.50;;
30133;SDS011;16946;49.984;10.672;2023-04-15T01:19:40;5.82;;;5.13;;
30133;SDS011;16946;49.984;10.672;2023-04-15T01:20:11;6.18;;;5.28;;
30133;SDS011;16946;49.984;10.672;2023-04-15T01:20:41;6.43;;;5.77;;
30133;SDS011;16946;49.984;10.672;2023-04-15T01:21:12;7.00;;;4.40;;
30133;SDS011;16946;49.984;10.672;2023-04-15T01:21:43;5.63;;;5.13;;
30133;SDS011;16946;49.984;10.672;2023-04-15T01:22:14;5.13;;;4.68;;
30133;SDS011;16946;49.984;10.672;2023-04-15T01:22:45;5.87;;;5.33;;
30133;SDS011;16946;49.984;10.672;2023-04-15T01:23:15;5.67;;;4.63;;
30133;SDS011;16946;49.984;10.672;2023-04-15T01:23:46;6.37;;;4.83;;
30133;SDS011;16946;49.984;10.672;2023-04-15T01:24:18;4.78;;;4.32;;
30133;SDS011;16946;49.984;10.672;2023-04-15T01:24:53;6.47;;;5.50;;
30133;SDS011;16946;49.984;10.672;2023-04-15T01:25:31;5.85;;;5.10;;
30133;SDS011;16946;49.984;10.672;2023-04-15T01:26:03;5.07;;;4.38;;
30133;SDS011;16946;49.984;10.672;2023-04-15T01:26:36;5.68;;;5.07;;
30133;SDS011;16946;49.984;10.672;2023-04-15T01:27:07;6.35;;;4.70;;
30133;SDS011;16946;49.984;10.672;2023-04-15T01:27:38;5.43;;;4.87;;
30133;SDS011;16946;49.984;10.672;2023-04-15T01:28:10;5.03;;;4.53;;
30133;SDS011;16946;49.984;10.672;2023-04-15T01:28:40;5.60;;;5.07;;
30133;SDS011;16946;49.984;10.672;2023-04-15T01:29:11;5.23;;;4.73;;
30133;SDS011;16946;49.984;10.672;2023-04-15T01:29:42;5.93;;;5.30;;
30133;SDS011;16946;49.984;10.672;2023-04-15T01:30:12;4.90;;;4.50;;
30133;SDS011;16946;49.984;10.672;2023-04-15T01:30:43;4.53;;;4.13;;
30133;SDS011;16946;49.984;10.672;2023-04-15T01:31:13;6.00;;;4.93;;
30133;SDS011;16946;49.984;10.672;2023-04-15T01:31:50;6.47;;;4.63;;
30133;SDS011;16946;49.984;10.672;2023-04-15T01:32:22;5.38;;;4.60;;
30133;SDS011;16946;49.984;10.672;2023-04-15T01:32:53;5.30;;;4.37;;
30133;SDS011;16946;49.984;10.672;2023-04-15T01:33:23;5.13;;;4.60;;
30133;SDS011;16946;49.984;10.672;2023-04-15T01:33:54;5.90;;;5.00;;
30133;SDS011;16946;49.984;10.672;2023-04-15T01:34:25;5.27;;;4.30;;
30133;SDS011;16946;49.984;10.672;2023-04-15T01:34:56;5.22;;;4.28;;
30133;SDS011;16946;49.984;10.672;2023-04-15T01:35:26;5.30;;;4.80;;
30133;SDS011;16946;49.984;10.672;2023-04-15T01:35:57;4.83;;;4.33;;
30133;SDS011;16946;49.984;10.672;2023-04-15T01:36:27;5.03;;;4.53;;
30133;SDS011;16946;49.984;10.672;2023-04-15T01:36:58;4.85;;;4.35;;
30133;SDS011;16946;49.984;10.672;2023-04-15T01:37:29;4.30;;;3.90;;
30133;SDS011;16946;49.984;10.672;2023-04-15T01:38:02;5.30;;;4.63;;
30133;SDS011;16946;49.984;10.672;2023-04-15T01:38:36;4.75;;;4.20;;
30133;SDS011;16946;49.984;10.672;2023-04-15T01:39:07;4.78;;;4.30;;
30133;SDS011;16946;49.984;10.672;2023-04-15T01:39:37;5.13;;;4.50;;
30133;SDS011;16946;49.984;10.672;2023-04-15T01:40:08;4.73;;;4.27;;
30133;SDS011;16946;49.984;10.672;2023-04-15T01:40:39;6.93;;;4.40;;
30133;SDS011;16946;49.984;10.672;2023-04-15T01:41:09;4.80;;;4.40;;
30133;SDS011;16946;49.984;10.672;2023-04-15T01:41:40;5.03;;;4.63;;
30133;SDS011;16946;49.984;10.672;2023-04-15T01:42:11;5.10;;;4.70;;
30133;SDS011;16946;49.984;10.672;2023-04-15T01:42:41;5.10;;;4.53;;
30133;SDS011;16946;49.984;10.672;2023-04-15T01:43:12;6.83;;;5.17;;
30133;SDS011;16946;49.984;10.672;2023-04-15T01:43:43;6.00;;;5.30;;
30133;SDS011;16946;49.984;10.672;2023-04-15T01:44:13;5.53;;;5.03;;
30133;SDS011;16946;49.984;10.672;2023-04-15T01:44:44;5.20;;;4.70;;
30133;SDS011;16946;49.984;10.672;2023-04-15T01:45:14;5.50;;;4.90;;
30133;SDS011;16946;49.984;10.672;2023-04-15T01:45:45;5.28;;;4.78;;
30133;SDS011;16946;49.984;10.672;2023-04-15T01:46:16;5.35;;;4.60;;
30133;SDS011;16946;49.984;10.672;2023-04-15T01:46:47;5.07;;;4.57;;
30133;SDS011;16946;49.984;10.672;2023-04-15T01:47:18;4.90;;;4.50;;
30133;SDS011;16946;49.984;10.672;2023-04-15T01:47:48;5.57;;;4.97;;
30133;SDS011;16946;49.984;10.672;2023-04-15T01:48:19;4.93;;;4.50;;
30133;SDS011;16946;49.984;10.672;2023-04-15T01:48:50;5.97;;;4.95;;
30133;SDS011;16946;49.984;10.672;2023-04-15T01:49:20;5.10;;;4.60;;
30133;SDS011;16946;49.984;10.672;2023-04-15T01:49:51;5.20;;;4.33;;
30133;SDS011;16946;49.984;10.672;2023-04-15T01:50:22;4.97;;;4.57;;
30133;SDS011;16946;49.984;10.672;2023-04-15T01:50:53;7.43;;;5.07;;
30133;SDS011;16946;49.984;10.672;2023-04-15T01:51:26;6.13;;;5.30;;
30133;SDS011;16946;49.984;10.672;2023-04-15T01:51:57;6.00;;;5.47;;
30133;SDS011;16946;49.984;10.672;2023-04-15T01:52:27;6.57;;;4.67;;
30133;SDS011;16946;49.984;10.672;2023-04-15T01:52:58;6.27;;;5.67;;
30133;SDS011;16946;49.984;10.672;2023-04-15T01:53:28;6.57;;;5.83;;
30133;SDS011;16946;49.984;10.672;2023-04-15T01:53:59;6.73;;;6.03;;
30133;SDS011;16946;49.984;10.672;2023-04-15T01:54:29;6.40;;;5.80;;
30133;SDS011;16946;49.984;10.672;2023-04-15T01:55:00;5.87;;;5.37;;
30133;SDS011;16946;49.984;10.672;2023-04-15T01:55:31;6.97;;;6.37;;
30133;SDS011;16946;49.984;10.672;2023-04-15T01:56:01;7.17;;;6.47;;
30133;SDS011;16946;49.984;10.672;2023-04-15T01:56:32;6.73;;;6.13;;
30133;SDS011;16946;49.984;10.672;2023-04-15T01:57:02;6.60;;;5.70;;
30133;SDS011;16946;49.984;10.672;2023-04-15T01:57:33;5.38;;;4.88;;
30133;SDS011;16946;49.984;10.672;2023-04-15T01:58:04;5.57;;;5.07;;
30133;SDS011;16946;49.984;10.672;2023-04-15T01:58:35;6.00;;;5.40;;
30133;SDS011;16946;49.984;10.672;2023-04-15T01:59:06;5.47;;;4.97;;
30133;SDS011;16946;49.984;10.672;2023-04-15T01:59:37;5.60;;;5.10;;
30133;SDS011;16946;49.984;10.672;2023-04-15T02:00:08;6.20;;;5.20;;
30133;SDS011;16946;49.984;10.672;2023-04-15T02:00:39;6.70;;;6.07;;
30133;SDS011;16946;49.984;10.672;2023-04-15T02:01:10;5.43;;;5.00;;
30133;SDS011;16946;49.984;10.672;2023-04-15T02:01:40;6.00;;;5.50;;
30133;SDS011;16946;49.984;10.672;2023-04-15T02:02:11;5.80;;;5.20;;
30133;SDS011;16946;49.984;10.672;2023-04-15T02:02:41;5.93;;;5.43;;
30133;SDS011;16946;49.984;10.672;2023-04-15T02:03:12;6.97;;;6.27;;
30133;SDS011;16946;49.984;10.672;2023-04-15T02:03:42;8.13;;;7.33;;
30133;SDS011;16946;49.984;10.672;2023-04-15T02:04:13;6.40;;;5.60;;
30133;SDS011;16946;49.984;10.672;2023-04-15T02:04:46;7.82;;;7.13;;
30133;SDS011;16946;49.984;10.672;2023-04-15T02:05:16;8.50;;;6.10;;
30133;SDS011;16946;49.984;10.672;2023-04-15T02:05:47;8.40;;;7.60;;
30133;SDS011;16946;49.984;10.672;2023-04-15T02:06:18;7.83;;;7.07;;
30133;SDS011;16946;49.984;10.672;2023-04-15T02:06:48;8.03;;;7.23;;
30133;SDS011;16946;49.984;10.672;2023-04-15T02:07:19;8.90;;;7.67;;
30133;SDS011;16946;49.984;10.672;2023-04-15T02:07:49;8.50;;;7.50;;
30133;SDS011;16946;49.984;10.672;2023-04-15T02:08:20;8.47;;;7.63;;
30133;SDS011;16946;49.984;10.672;2023-04-15T02:08:51;7.87;;;7.10;;
30133;SDS011;16946;49.984;10.672;2023-04-15T02:09:22;8.67;;;7.87;;
30133;SDS011;16946;49.984;10.672;2023-04-15T02:09:52;7.13;;;6.40;;
30133;SDS011;16946;49.984;10.672;2023-04-15T02:10:23;9.30;;;8.40;;
30133;SDS011;16946;49.984;10.672;2023-04-15T02:10:53;9.10;;;7.83;;
30133;SDS011;16946;49.984;10.672;2023-04-15T02:11:24;7.93;;;6.90;;
30133;SDS011;16946;49.984;10.672;2023-04-15T02:11:55;9.10;;;7.77;;
30133;SDS011;16946;49.984;10.672;2023-04-15T02:12:25;7.80;;;7.00;;
30133;SDS011;16946;49.984;10.672;2023-04-15T02:12:56;8.97;;;8.00;;
30133;SDS011;16946;49.984;10.672;2023-04-15T02:13:26;9.13;;;7.83;;
30133;SDS011;16946;49.984;10.672;2023-04-15T02:13:57;9.57;;;7.63;;
30133;SDS011;16946;49.984;10.672;2023-04-15T02:14:27;9.40;;;8.60;;
30133;SDS011;16946;49.984;10.672;2023-04-15T02:14:58;7.13;;;6.53;;
30133;SDS011;16946;49.984;10.672;2023-04-15T02:15:28;9.63;;;7.53;;
30133;SDS011;16946;49.984;10.672;2023-04-15T02:15:59;6.73;;;6.13;;
30133;SDS011;16946;49.984;10.672;2023-04-15T02:16:31;8.87;;;7.97;;
30133;SDS011;16946;49.984;10.672;2023-04-15T02:17:02;10.02;;;9.05;;
30133;SDS011;16946;49.984;10.672;2023-04-15T02:17:36;11.25;;;10.23;;
30133;SDS011;16946;49.984;10.672;2023-04-15T02:18:06;10.40;;;9.40;;
30133;SDS011;16946;49.984;10.672;2023-04-15T02:18:37;12.03;;;10.70;;
30133;SDS011;16946;49.984;10.672;2023-04-15T02:19:07;10.10;;;8.97;;
30133;SDS011;16946;49.984;10.672;2023-04-15T02:19:38;10.53;;;9.40;;
30133;SDS011;16946;49.984;10.672;2023-04-15T02:20:10;10.13;;;8.85;;
30133;SDS011;16946;49.984;10.672;2023-04-15T02:20:41;10.80;;;9.80;;
30133;SDS011;16946;49.984;10.672;2023-04-15T02:21:12;12.27;;;11.07;;
30133;SDS011;16946;49.984;10.672;2023-04-15T02:21:43;10.70;;;9.70;;
30133;SDS011;16946;49.984;10.672;2023-04-15T02:22:14;12.77;;;11.53;;
30133;SDS011;16946;49.984;10.672;2023-04-15T02:22:47;11.15;;;10.07;;
30133;SDS011;16946;49.984;10.672;2023-04-15T02:23:18;11.57;;;10.37;;
30133;SDS011;16946;49.984;10.672;2023-04-15T02:23:48;13.37;;;12.17;;
30133;SDS011;16946;49.984;10.672;2023-04-15T02:24:20;12.65;;;10.80;;
30133;SDS011;16946;49.984;10.672;2023-04-15T02:24:51;12.85;;;11.27;;
30133;SDS011;16946;49.984;10.672;2023-04-15T02:25:21;14.03;;;12.50;;
30133;SDS011;16946;49.984;10.672;2023-04-15T02:25:52;14.00;;;12.60;;
30133;SDS011;16946;49.984;10.672;2023-04-15T02:26:22;12.37;;;10.50;;
30133;SDS011;16946;49.984;10.672;2023-04-15T02:26:54;13.52;;;12.15;;
30133;SDS011;16946;49.984;10.672;2023-04-15T02:27:25;12.23;;;10.97;;
30133;SDS011;16946;49.984;10.672;2023-04-15T02:27:57;11.57;;;10.40;;
30133;SDS011;16946;49.984;10.672;2023-04-15T02:28:27;12.20;;;11.10;;
30133;SDS011;16946;49.984;10.672;2023-04-15T02:28:58;14.43;;;11.47;;
30133;SDS011;16946;49.984;10.672;2023-04-15T02:29:30;11.90;;;9.83;;
30133;SDS011;16946;49.984;10.672;2023-04-15T02:30:01;12.88;;;11.68;;
30133;SDS011;16946;49.984;10.672;2023-04-15T02:30:32;12.93;;;11.70;;
30133;SDS011;16946;49.984;10.672;2023-04-15T02:31:06;13.02;;;11.70;;
30133;SDS011;16946;49.984;10.672;2023-04-15T02:31:37;14.68;;;13.20;;
30133;SDS011;16946;49.984;10.672;2023-04-15T02:32:09;14.50;;;13.15;;
30133;SDS011;16946;49.984;10.672;2023-04-15T02:32:40;14.63;;;12.82;;
30133;SDS011;16946;49.984;10.672;2023-04-15T02:33:13;13.48;;;12.18;;
30133;SDS011;16946;49.984;10.672;2023-04-15T02:33:44;13.60;;;12.23;;
30133;SDS011;16946;49.984;10.672;2023-04-15T02:34:15;14.20;;;12.30;;
30133;SDS011;16946;49.984;10.672;2023-04-15T02:34:46;13.03;;;11.83;;
30133;SDS011;16946;49.984;10.672;2023-04-15T02:35:16;12.57;;;11.37;;
30133;SDS011;16946;49.984;10.672;2023-04-15T02:35:48;12.43;;;11.20;;
30133;SDS011;16946;49.984;10.672;2023-04-15T02:36:19;12.63;;;11.43;;
30133;SDS011;16946;49.984;10.672;2023-04-15T02:36:50;14.43;;;10.80;;
30133;SDS011;16946;49.984;10.672;2023-04-15T02:37:23;12.48;;;11.20;;
30133;SDS011;16946;49.984;10.672;2023-04-15T02:37:56;13.32;;;12.05;;
30133;SDS011;16946;49.984;10.672;2023-04-15T02:38:27;11.37;;;10.27;;
30133;SDS011;16946;49.984;10.672;2023-04-15T02:38:58;11.93;;;10.73;;
30133;SDS011;16946;49.984;10.672;2023-04-15T02:39:28;14.10;;;11.50;;
30133;SDS011;16946;49.984;10.672;2023-04-15T02:39:59;11.43;;;10.40;;
30133;SDS011;16946;49.984;10.672;2023-04-15T02:40:30;11.43;;;10.27;;
30133;SDS011;16946;49.984;10.672;2023-04-15T02:41:01;10.50;;;9.40;;
30133;SDS011;16946;49.984;10.672;2023-04-15T02:41:32;9.90;;;8.50;;
30133;SDS011;16946;49.984;10.672;2023-04-15T02:42:03;10.82;;;9.25;;
30133;SDS011;16946;49.984;10.672;2023-04-15T02:42:35;10.48;;;9.48;;
30133;SDS011;16946;49.984;10.672;2023-04-15T02:43:05;9.87;;;8.90;;
30133;SDS011;16946;49.984;10.672;2023-04-15T02:43:36;10.00;;;8.97;;
30133;SDS011;16946;49.984;10.672;2023-04-15T02:44:08;12.60;;;11.32;;
30133;SDS011;16946;49.984;10.672;2023-04-15T02:44:41;11.73;;;10.48;;
30133;SDS011;16946;49.984;10.672;2023-04-15T02:45:12;10.90;;;9.80;;
30133;SDS011;16946;49.984;10.672;2023-04-15T02:45:43;11.30;;;10.10;;
30133;SDS011;16946;49.984;10.672;2023-04-15T02:46:15;10.98;;;9.98;;
30133;SDS011;16946;49.984;10.672;2023-04-15T02:46:45;11.30;;;10.10;;
30133;SDS011;16946;49.984;10.672;2023-04-15T02:47:19;13.63;;;12.20;;
30133;SDS011;16946;49.984;10.672;2023-04-15T02:47:50;13.43;;;11.20;;
30133;SDS011;16946;49.984;10.672;2023-04-15T02:48:20;11.97;;;10.67;;
30133;SDS011;16946;49.984;10.672;2023-04-15T02:48:51;12.57;;;11.17;;
30133;SDS011;16946;49.984;10.672;2023-04-15T02:49:23;13.23;;;11.82;;
30133;SDS011;16946;49.984;10.672;2023-04-15T02:49:54;14.00;;;12.00;;
30133;SDS011;16946;49.984;10.672;2023-04-15T02:50:25;12.87;;;11.50;;
30133;SDS011;16946;49.984;10.672;2023-04-15T02:51:14;13.85;;;12.38;;
30133;SDS011;16946;49.984;10.672;2023-04-15T02:51:47;12.55;;;11.30;;
30133;SDS011;16946;49.984;10.672;2023-04-15T02:52:18;12.25;;;11.10;;
30133;SDS011;16946;49.984;10.672;2023-04-15T02:52:49;13.03;;;11.63;;
30133;SDS011;16946;49.984;10.672;2023-04-15T02:53:21;13.73;;;12.32;;
30133;SDS011;16946;49.984;10.672;2023-04-15T02:53:51;12.40;;;11.07;;
30133;SDS011;16946;49.984;10.672;2023-04-15T02:54:22;12.03;;;10.93;;
30133;SDS011;16946;49.984;10.672;2023-04-15T02:54:53;13.07;;;11.70;;
30133;SDS011;16946;49.984;10.672;2023-04-15T02:55:29;13.15;;;11.95;;
30133;SDS011;16946;49.984;10.672;2023-04-15T02:56:00;13.70;;;10.87;;
30133;SDS011;16946;49.984;10.672;2023-04-15T02:56:30;12.13;;;10.93;;
30133;SDS011;16946;49.984;10.672;2023-04-15T02:57:01;10.90;;;9.90;;
30133;SDS011;16946;49.984;10.672;2023-04-15T02:57:31;11.03;;;9.97;;
30133;SDS011;16946;49.984;10.672;2023-04-15T02:58:03;12.55;;;11.25;;
30133;SDS011;16946;49.984;10.672;2023-04-15T02:58:34;11.90;;;10.77;;
30133;SDS011;16946;49.984;10.672;2023-04-15T02:59:05;12.00;;;10.80;;
30133;SDS011;16946;49.984;10.672;2023-04-15T02:59:36;11.80;;;10.47;;
30133;SDS011;16946;49.984;10.672;2023-04-15T03:00:06;11.60;;;10.43;;
30133;SDS011;16946;49.984;10.672;2023-04-15T03:00:38;11.15;;;10.07;;
30133;SDS011;16946;49.984;10.672;2023-04-15T03:01:09;12.00;;;10.80;;
30133;SDS011;16946;49.984;10.672;2023-04-15T03:01:39;12.80;;;11.47;;
30133;SDS011;16946;49.984;10.672;2023-04-15T03:02:10;12.10;;;10.90;;
30133;SDS011;16946;49.984;10.672;2023-04-15T03:02:40;12.87;;;11.57;;
30133;SDS011;16946;49.984;10.672;2023-04-15T03:03:11;12.13;;;11.05;;